Terminal Aerodrome Forecast
Issued by NWS

Home | Current Version | Previous Version | Text Only | Print | Product List | Glossary On
Versions: 1 2 3 4 5 6 7 8 9 10 11 12 13 14 15 16 17 18 19 20 21 22 23 24 25
000
FTUS45 KREV 061722
TAFTRK
TAF
KTRK 061722Z 0618/0718 02006KT P6SM FEW070
     FM061900 16006KT P6SM FEW060 SCT120
     FM062200 26008KT P6SM VCTS SCT050CB BKN100
     FM070200 VRB04KT P6SM SCT080 BKN140
     FM070500 VRB03KT P6SM SCT120 BKN180
     FM071000 VRB03KT P6SM SCT180=

USA.gov is the U.S. government's official web portal to all federal, state and local government web resources and services.